createdAt,value
2018-07-24T00:01:31.971Z,9.23
2018-07-24T00:04:00.318Z,8.63
2018-07-24T00:06:28.653Z,9.07
2018-07-24T00:08:56.918Z,9.10
2018-07-24T00:11:25.174Z,9.40
2018-07-24T00:13:53.451Z,9.10
2018-07-24T00:16:21.749Z,9.30
2018-07-24T00:18:50.053Z,9.43
2018-07-24T00:21:18.346Z,8.77
2018-07-24T00:23:46.682Z,8.80
2018-07-24T00:26:15.152Z,9.73
2018-07-24T00:28:43.429Z,9.47
2018-07-24T00:31:11.714Z,9.83
2018-07-24T00:33:39.997Z,9.07
2018-07-24T00:36:08.308Z,9.87
2018-07-24T00:38:36.611Z,9.40
2018-07-24T00:41:04.934Z,9.13
2018-07-24T00:43:33.217Z,9.23
2018-07-24T00:46:01.535Z,9.40
2018-07-24T00:48:29.812Z,9.40
2018-07-24T00:50:58.284Z,8.53
2018-07-24T00:53:26.648Z,9.70
2018-07-24T00:55:54.940Z,9.77
2018-07-24T00:58:23.252Z,9.03
2018-07-24T01:00:51.563Z,9.73
2018-07-24T01:03:19.845Z,9.37
2018-07-24T01:05:48.149Z,9.17
2018-07-24T01:08:16.440Z,9.90
2018-07-24T01:10:44.741Z,9.10
2018-07-24T01:13:13.042Z,9.07
2018-07-24T01:15:41.361Z,9.53
2018-07-24T01:18:09.378Z,8.90
2018-07-24T01:20:37.935Z,9.17
2018-07-24T01:23:06.408Z,8.70
2018-07-24T01:25:34.679Z,8.80
2018-07-24T01:28:03.001Z,8.37
2018-07-24T01:30:31.256Z,9.13
2018-07-24T01:32:59.255Z,8.90
2018-07-24T01:35:27.543Z,8.90
2018-07-24T01:37:55.838Z,9.03
2018-07-24T01:40:24.143Z,9.20
2018-07-24T01:42:52.395Z,9.07
2018-07-24T01:45:20.675Z,8.70
2018-07-24T01:47:48.944Z,7.83
2018-07-24T01:50:17.213Z,9.50
2018-07-24T01:52:45.478Z,8.90
2018-07-24T01:55:13.738Z,8.63
2018-07-24T01:57:42.033Z,9.07
2018-07-24T02:00:14.120Z,9.27
2018-07-24T02:02:42.446Z,8.50
2018-07-24T02:05:10.778Z,8.90
2018-07-24T02:07:39.306Z,9.13
2018-07-24T02:10:07.609Z,8.67
2018-07-24T02:12:35.930Z,9.03
2018-07-24T02:15:05.006Z,8.57
2018-07-24T02:17:33.285Z,9.50
2018-07-24T02:20:01.923Z,9.30
2018-07-24T02:22:30.407Z,8.37
2018-07-24T02:24:58.729Z,9.20
2018-07-24T02:27:27.029Z,9.00
2018-07-24T02:29:55.295Z,9.03
2018-07-24T02:32:23.594Z,9.20
2018-07-24T02:34:51.872Z,9.50
2018-07-24T02:37:20.153Z,7.97
2018-07-24T02:39:48.418Z,8.30
2018-07-24T02:42:16.898Z,8.97
2018-07-24T02:44:45.169Z,9.07
2018-07-24T02:47:13.490Z,9.03
2018-07-24T02:49:41.761Z,8.53
2018-07-24T02:52:10.060Z,9.20
2018-07-24T02:54:38.352Z,8.77
2018-07-24T02:57:06.397Z,8.80
2018-07-24T02:59:34.731Z,9.37
2018-07-24T03:02:03.002Z,8.57
2018-07-24T03:04:31.606Z,9.00
2018-07-24T03:06:59.893Z,9.30
2018-07-24T03:09:28.172Z,9.13
2018-07-24T03:11:56.425Z,8.77
2018-07-24T03:14:24.825Z,9.00
2018-07-24T03:16:53.123Z,8.37
2018-07-24T03:19:21.397Z,8.70
2018-07-24T03:21:49.748Z,8.90
2018-07-24T03:24:18.061Z,9.20
2018-07-24T03:26:46.406Z,8.97
2018-07-24T03:29:14.695Z,9.50
2018-07-24T03:31:42.981Z,8.37
2018-07-24T03:34:11.245Z,9.70
2018-07-24T03:36:39.565Z,9.07
2018-07-24T03:39:10.313Z,9.10
2018-07-24T03:41:38.682Z,8.90
2018-07-24T03:44:06.990Z,9.07
2018-07-24T03:46:35.367Z,8.90
2018-07-24T03:49:04.226Z,9.73
2018-07-24T03:51:32.495Z,8.40
2018-07-24T03:54:00.789Z,9.17
2018-07-24T03:56:29.072Z,8.63
2018-07-24T03:58:57.409Z,8.40
2018-07-24T04:01:25.881Z,9.40
2018-07-24T04:03:54.193Z,8.27
2018-07-24T04:06:22.445Z,8.07
2018-07-24T04:08:50.807Z,9.00
2018-07-24T04:11:19.131Z,8.90
2018-07-24T04:13:47.385Z,9.10
2018-07-24T04:16:15.662Z,8.87
2018-07-24T04:18:46.424Z,9.17
2018-07-24T04:21:15.493Z,9.07
2018-07-24T04:23:43.835Z,9.17
2018-07-24T04:26:12.109Z,9.40
2018-07-24T04:28:41.868Z,9.13
2018-07-24T04:31:11.077Z,8.47
2018-07-24T04:33:39.351Z,9.37
2018-07-24T04:36:07.680Z,8.80
2018-07-24T04:38:36.017Z,9.47
2018-07-24T04:41:04.494Z,8.77
2018-07-24T04:43:32.770Z,7.97
2018-07-24T04:46:01.069Z,8.67
2018-07-24T04:48:29.621Z,8.50
2018-07-24T04:50:57.818Z,9.80
2018-07-24T04:53:26.114Z,8.80
2018-07-24T04:55:54.445Z,9.37
2018-07-24T04:58:22.712Z,8.70
2018-07-24T05:00:51.005Z,9.13
2018-07-24T05:03:19.349Z,9.23
2018-07-24T05:05:47.417Z,8.80
2018-07-24T05:08:15.686Z,9.00
2018-07-24T05:10:43.980Z,9.97
2018-07-24T05:13:12.265Z,8.90
2018-07-24T05:15:40.592Z,9.10
2018-07-24T05:18:08.857Z,9.67
2018-07-24T05:20:37.145Z,8.80
2018-07-24T05:23:05.410Z,9.13
2018-07-24T05:25:33.759Z,10.00
2018-07-24T05:28:02.078Z,8.70
2018-07-24T05:30:30.477Z,9.23
2018-07-24T05:32:58.714Z,9.20
2018-07-24T05:35:27.021Z,12.97
2018-07-24T05:37:55.289Z,10.93
2018-07-24T05:40:23.557Z,9.13
2018-07-24T05:42:52.075Z,9.70
2018-07-24T05:45:20.357Z,9.50
2018-07-24T05:47:48.602Z,8.70
2018-07-24T05:50:16.885Z,12.77
2018-07-24T05:52:45.154Z,11.47
2018-07-24T05:55:13.504Z,9.03
2018-07-24T05:57:41.766Z,9.10
2018-07-24T06:00:10.071Z,8.47
2018-07-24T06:02:38.403Z,8.97
2018-07-24T06:05:06.702Z,15.70
2018-07-24T06:07:34.993Z,9.10
2018-07-24T06:10:03.271Z,8.37
2018-07-24T06:12:31.587Z,8.90
2018-07-24T06:14:59.926Z,9.47
2018-07-24T06:17:28.268Z,9.23
2018-07-24T06:19:56.539Z,9.73
2018-07-24T06:22:24.875Z,16.73
2018-07-24T06:24:53.265Z,13.43
2018-07-24T06:27:21.537Z,9.40
2018-07-24T06:29:49.845Z,9.23
2018-07-24T06:32:18.199Z,10.20
2018-07-24T06:34:46.493Z,12.33
2018-07-24T06:37:14.754Z,16.40
2018-07-24T06:39:43.324Z,10.70
2018-07-24T06:42:11.865Z,10.13
2018-07-24T06:44:40.171Z,13.43
2018-07-24T06:47:08.425Z,16.53
2018-07-24T06:49:36.757Z,13.30
2018-07-24T06:52:05.310Z,9.20
2018-07-24T06:54:33.566Z,8.30
2018-07-24T06:57:02.028Z,12.17
2018-07-24T06:59:30.281Z,9.93
2018-07-24T07:01:58.338Z,16.50
2018-07-24T07:04:26.613Z,14.10
2018-07-24T07:06:54.909Z,15.30
2018-07-24T07:09:23.222Z,15.20
2018-07-24T07:11:51.549Z,14.20
2018-07-24T07:14:19.853Z,8.90
2018-07-24T07:16:48.162Z,9.53
2018-07-24T07:19:16.439Z,13.10
2018-07-24T07:21:44.769Z,8.77
2018-07-24T07:24:13.054Z,11.50
2018-07-24T07:26:41.301Z,9.40
2018-07-24T07:29:09.643Z,9.10
2018-07-24T07:31:37.882Z,9.43
2018-07-24T07:34:06.399Z,8.83
2018-07-24T07:36:34.690Z,9.47
2018-07-24T07:39:03.201Z,10.67
2018-07-24T07:41:31.481Z,9.10
2018-07-24T07:43:59.850Z,10.37
2018-07-24T07:46:28.091Z,8.97
2018-07-24T07:48:56.387Z,8.70
2018-07-24T07:51:24.715Z,8.43
2018-07-24T07:53:52.737Z,9.33
2018-07-24T07:56:21.001Z,9.00
2018-07-24T07:58:49.343Z,9.07
2018-07-24T08:01:17.657Z,9.27
2018-07-24T08:03:45.908Z,9.00
2018-07-24T08:06:14.221Z,10.60
2018-07-24T08:08:42.503Z,9.33
2018-07-24T08:11:10.817Z,9.03
2018-07-24T08:13:39.130Z,9.20
2018-07-24T08:16:07.490Z,8.70
2018-07-24T08:18:35.771Z,8.83
2018-07-24T08:21:04.070Z,10.57
2018-07-24T08:23:32.401Z,9.80
2018-07-24T08:26:00.759Z,8.27
2018-07-24T08:28:29.057Z,8.47
2018-07-24T08:30:57.573Z,9.40
2018-07-24T08:33:25.909Z,8.60
2018-07-24T08:35:54.117Z,7.73
2018-07-24T08:38:22.437Z,9.63
2018-07-24T08:40:50.729Z,8.37
2018-07-24T08:43:18.995Z,9.13
2018-07-24T08:45:47.356Z,8.90
2018-07-24T08:48:15.717Z,8.77
2018-07-24T08:50:44.029Z,7.77
2018-07-24T08:53:12.600Z,8.73
2018-07-24T08:55:40.927Z,8.57
2018-07-24T08:58:08.964Z,8.77
2018-07-24T09:00:37.303Z,8.00
2018-07-24T09:03:05.574Z,8.57
2018-07-24T09:05:33.824Z,8.03
2018-07-24T09:08:02.102Z,8.07
2018-07-24T09:10:30.427Z,9.00
2018-07-24T09:12:58.706Z,9.67
2018-07-24T09:15:26.980Z,8.30
2018-07-24T09:17:55.278Z,7.70
2018-07-24T09:20:23.576Z,8.80
2018-07-24T09:22:51.862Z,8.43
2018-07-24T09:25:20.138Z,8.53
2018-07-24T09:27:48.773Z,8.10
2018-07-24T09:30:17.059Z,7.90
2018-07-24T09:32:45.387Z,9.23
2018-07-24T09:35:13.665Z,7.87
2018-07-24T09:37:41.977Z,8.23
2018-07-24T09:40:10.266Z,8.07
2018-07-24T09:42:38.554Z,8.03
2018-07-24T09:45:07.278Z,7.50
2018-07-24T09:47:35.557Z,8.60
2018-07-24T09:50:03.893Z,8.63
2018-07-24T09:52:32.213Z,8.07
2018-07-24T09:55:00.518Z,8.73
2018-07-24T09:57:28.771Z,8.53
2018-07-24T09:59:57.033Z,7.30
2018-07-24T10:02:25.316Z,8.63
2018-07-24T10:04:53.613Z,7.70
2018-07-24T10:07:22.100Z,7.57
2018-07-24T10:09:50.537Z,7.63
2018-07-24T10:12:18.810Z,7.33
2018-07-24T10:14:47.065Z,8.60
2018-07-24T10:17:15.369Z,7.60
2018-07-24T10:19:43.683Z,7.30
2018-07-24T10:22:12.013Z,8.23
2018-07-24T10:24:40.248Z,7.93
2018-07-24T10:27:08.521Z,7.47
2018-07-24T10:29:36.786Z,7.37
2018-07-24T10:32:05.154Z,8.50
2018-07-24T10:34:33.425Z,7.23
2018-07-24T10:37:01.734Z,7.87
2018-07-24T10:39:30.014Z,7.70
2018-07-24T10:41:58.347Z,7.60
2018-07-24T10:44:26.686Z,7.77
2018-07-24T10:46:54.975Z,8.30
2018-07-24T10:49:23.284Z,7.60
2018-07-24T10:51:51.590Z,7.40
2018-07-24T10:54:19.982Z,7.23
2018-07-24T10:56:48.264Z,7.23
2018-07-24T10:59:16.979Z,7.00
2018-07-24T11:01:45.475Z,6.83
2018-07-24T11:04:13.752Z,7.33
2018-07-24T11:06:42.191Z,5.97
2018-07-24T11:09:10.489Z,6.87
2018-07-24T11:11:38.777Z,6.80
2018-07-24T11:14:07.066Z,7.03
2018-07-24T11:16:35.393Z,5.90
2018-07-24T11:19:03.794Z,6.37
2018-07-24T11:21:32.081Z,6.90
2018-07-24T11:24:00.341Z,7.10
2018-07-24T11:26:28.660Z,7.10
2018-07-24T11:28:56.977Z,6.63
2018-07-24T11:31:25.270Z,6.43
2018-07-24T11:33:53.541Z,6.90
2018-07-24T11:36:21.874Z,6.67
2018-07-24T11:38:50.123Z,6.93
2018-07-24T11:41:18.398Z,7.43
2018-07-24T11:43:46.680Z,6.90
2018-07-24T11:46:15.049Z,6.93
2018-07-24T11:48:43.292Z,6.63
2018-07-24T11:51:11.593Z,6.70
2018-07-24T11:53:39.925Z,6.90
2018-07-24T11:56:08.749Z,7.10
2018-07-24T11:58:37.122Z,7.50
2018-07-24T12:01:05.421Z,6.63
2018-07-24T12:03:33.751Z,7.37
2018-07-24T12:06:02.045Z,6.73
2018-07-24T12:08:30.313Z,7.37
2018-07-24T12:10:58.593Z,6.60
2018-07-24T12:13:26.898Z,7.07
2018-07-24T12:15:55.197Z,6.80
2018-07-24T12:18:23.537Z,6.63
2018-07-24T12:20:52.198Z,6.43
2018-07-24T12:23:20.509Z,7.30
2018-07-24T12:25:48.779Z,6.87
2018-07-24T12:28:17.048Z,7.60
2018-07-24T12:30:45.355Z,7.90
2018-07-24T12:33:13.639Z,7.60
2018-07-24T12:35:41.960Z,6.57
2018-07-24T12:38:10.231Z,7.80
2018-07-24T12:40:38.567Z,7.43
2018-07-24T12:43:07.458Z,7.33
2018-07-24T12:45:35.741Z,6.13
2018-07-24T12:48:04.075Z,6.60
2018-07-24T12:50:32.726Z,7.00
2018-07-24T12:53:00.995Z,7.30
2018-07-24T12:55:29.331Z,6.50
2018-07-24T12:57:57.605Z,6.07
2018-07-24T13:00:25.858Z,6.63
2018-07-24T13:02:54.166Z,6.20
2018-07-24T13:05:22.446Z,7.27
2018-07-24T13:07:50.812Z,6.47
2018-07-24T13:10:19.126Z,7.03
2018-07-24T13:12:47.538Z,7.60
2018-07-24T13:15:17.067Z,6.87
2018-07-24T13:17:47.736Z,6.97
2018-07-24T13:20:17.211Z,7.33
2018-07-24T13:22:45.511Z,6.23
2018-07-24T13:25:13.871Z,6.57
2018-07-24T13:27:42.309Z,6.87
2018-07-24T13:30:10.575Z,6.30
2018-07-24T13:32:38.865Z,5.83
2018-07-24T13:35:07.147Z,6.10
2018-07-24T13:37:35.492Z,6.00
2018-07-24T13:40:04.199Z,7.47
2018-07-24T13:42:33.262Z,6.93
2018-07-24T13:45:01.621Z,6.70
2018-07-24T13:47:30.137Z,6.80
2018-07-24T13:49:58.727Z,6.47
2018-07-24T13:52:27.340Z,6.67
2018-07-24T13:54:55.670Z,6.67
2018-07-24T13:57:23.954Z,6.07
2018-07-24T13:59:52.263Z,6.57
2018-07-24T14:02:20.758Z,5.80
2018-07-24T14:04:49.205Z,5.63
2018-07-24T14:07:17.523Z,5.77
2018-07-24T14:09:45.885Z,6.03
2018-07-24T14:12:14.209Z,6.43
2018-07-24T14:14:42.644Z,6.53
2018-07-24T14:17:11.705Z,6.10
2018-07-24T14:19:40.581Z,6.10
2018-07-24T14:22:08.914Z,6.37
2018-07-24T14:24:37.503Z,5.60
2018-07-24T14:27:05.658Z,6.00
2018-07-24T14:29:34.074Z,6.00
2018-07-24T14:32:02.435Z,6.83
2018-07-24T14:34:30.786Z,6.17
2018-07-24T14:36:59.071Z,6.60
2018-07-24T14:39:27.400Z,5.93
2018-07-24T14:41:55.928Z,5.97
2018-07-24T14:44:24.328Z,6.20
2018-07-24T14:46:52.637Z,5.87
2018-07-24T14:49:20.921Z,5.63
2018-07-24T14:51:49.213Z,5.97
2018-07-24T14:54:17.578Z,5.77
2018-07-24T14:56:45.915Z,6.30
2018-07-24T14:59:14.291Z,6.00
2018-07-24T15:01:42.584Z,6.20
2018-07-24T15:04:11.465Z,5.80
2018-07-24T15:06:40.319Z,5.50
2018-07-24T15:09:10.756Z,6.03
2018-07-24T15:11:39.054Z,6.17
2018-07-24T15:14:07.381Z,6.20
2018-07-24T15:16:36.735Z,6.47
2018-07-24T15:19:05.018Z,6.63
2018-07-24T15:21:33.309Z,6.33
2018-07-24T15:24:01.647Z,5.90
2018-07-24T15:26:29.953Z,6.40
2018-07-24T15:28:58.311Z,6.27
2018-07-24T15:31:26.593Z,6.23
2018-07-24T15:33:55.180Z,6.43
2018-07-24T15:36:23.545Z,6.07
2018-07-24T15:38:51.790Z,5.80
2018-07-24T15:41:20.057Z,6.17
2018-07-24T15:43:48.405Z,6.33
2018-07-24T15:46:16.765Z,5.90
2018-07-24T15:48:45.018Z,5.80
2018-07-24T15:51:13.473Z,6.50
2018-07-24T15:53:41.747Z,6.47
2018-07-24T15:56:10.080Z,5.73
2018-07-24T15:58:38.055Z,6.20
2018-07-24T16:01:06.769Z,6.60
2018-07-24T16:03:35.038Z,5.67
2018-07-24T16:06:03.400Z,6.43
2018-07-24T16:08:31.692Z,6.13
2018-07-24T16:11:00.834Z,6.40
2018-07-24T16:13:29.096Z,6.20
2018-07-24T16:15:57.539Z,7.00
2018-07-24T16:18:25.741Z,6.50
2018-07-24T16:20:53.982Z,6.47
2018-07-24T16:23:22.269Z,6.70
2018-07-24T16:25:50.322Z,6.47
2018-07-24T16:28:18.591Z,5.93
2018-07-24T16:30:46.940Z,6.33
2018-07-24T16:33:15.223Z,6.27
2018-07-24T16:35:43.489Z,6.40
2018-07-24T16:38:11.802Z,6.57
2018-07-24T16:40:40.095Z,5.97
2018-07-24T16:43:08.370Z,6.67
2018-07-24T16:45:36.638Z,6.10
2018-07-24T16:48:04.935Z,6.47
2018-07-24T16:50:33.236Z,6.27
2018-07-24T16:53:01.563Z,6.57
2018-07-24T16:55:29.865Z,6.50
2018-07-24T16:57:58.239Z,6.60
2018-07-24T17:00:26.425Z,6.47
2018-07-24T17:02:54.876Z,6.53
2018-07-24T17:05:23.049Z,6.77
2018-07-24T17:07:51.494Z,6.93
2018-07-24T17:10:19.826Z,6.37
2018-07-24T17:12:48.131Z,6.70
2018-07-24T17:15:16.386Z,7.00
2018-07-24T17:17:45.730Z,7.03
2018-07-24T17:20:14.041Z,6.33
2018-07-24T17:22:42.777Z,6.73
2018-07-24T17:25:11.197Z,6.43
2018-07-24T17:27:39.587Z,6.87
2018-07-24T17:30:07.907Z,6.33
2018-07-24T17:32:36.489Z,6.20
2018-07-24T17:35:04.957Z,6.20
2018-07-24T17:37:33.424Z,6.80
2018-07-24T17:40:02.121Z,6.23
2018-07-24T17:42:30.422Z,6.63
2018-07-24T17:44:59.173Z,6.50
2018-07-24T17:47:27.694Z,6.73
2018-07-24T17:49:56.598Z,6.20
2018-07-24T17:52:25.002Z,5.67
2018-07-24T17:54:53.045Z,6.47
2018-07-24T17:57:21.827Z,6.47
2018-07-24T17:59:50.393Z,6.33
2018-07-24T18:02:19.078Z,6.77
2018-07-24T18:04:47.361Z,6.87
2018-07-24T18:07:15.664Z,6.77
2018-07-24T18:09:44.405Z,6.70
2018-07-24T18:12:12.868Z,7.27
2018-07-24T18:14:41.377Z,6.60
2018-07-24T18:17:09.945Z,7.10
2018-07-24T18:19:38.537Z,7.00
2018-07-24T18:22:07.019Z,6.70
2018-07-24T18:24:35.802Z,6.63
2018-07-24T18:27:04.115Z,6.63
2018-07-24T18:29:32.398Z,7.10
2018-07-24T18:32:00.938Z,6.40
2018-07-24T18:34:29.516Z,6.83
2018-07-24T18:36:58.495Z,7.40
2018-07-24T18:39:27.481Z,7.13
2018-07-24T18:41:56.981Z,7.93
2018-07-24T18:44:26.862Z,6.97
2018-07-24T18:46:55.365Z,6.93
2018-07-24T18:49:23.575Z,6.97
2018-07-24T18:51:51.893Z,7.53
2018-07-24T18:54:20.175Z,7.37
2018-07-24T18:56:48.469Z,7.33
2018-07-24T18:59:16.773Z,6.97
2018-07-24T19:01:45.072Z,6.97
2018-07-24T19:04:13.365Z,7.27
2018-07-24T19:06:41.912Z,6.93
2018-07-24T19:09:11.084Z,7.10
2018-07-24T19:11:39.861Z,6.90
2018-07-24T19:14:08.245Z,6.80
2018-07-24T19:16:36.577Z,7.20
2018-07-24T19:19:04.874Z,6.97
2018-07-24T19:21:33.173Z,7.03
2018-07-24T19:24:01.550Z,7.30
2018-07-24T19:26:29.854Z,7.50
2018-07-24T19:28:58.135Z,7.80
2018-07-24T19:31:26.424Z,7.00
2018-07-24T19:33:54.721Z,7.47
2018-07-24T19:36:23.041Z,7.43
2018-07-24T19:38:51.301Z,6.53
2018-07-24T19:41:19.578Z,7.10
2018-07-24T19:43:47.876Z,8.47
2018-07-24T19:46:16.234Z,6.47
2018-07-24T19:48:45.432Z,6.13
2018-07-24T19:51:13.792Z,8.20
2018-07-24T19:53:42.084Z,7.47
2018-07-24T19:56:10.390Z,6.87
2018-07-24T19:58:38.714Z,6.30
2018-07-24T20:01:07.045Z,6.07
2018-07-24T20:03:35.379Z,6.77
2018-07-24T20:06:03.685Z,6.57
2018-07-24T20:08:31.984Z,6.40
2018-07-24T20:11:00.271Z,6.47
2018-07-24T20:13:28.579Z,6.67
2018-07-24T20:15:56.861Z,6.20
2018-07-24T20:18:25.142Z,6.17
2018-07-24T20:20:53.445Z,6.40
2018-07-24T20:23:21.858Z,6.10
2018-07-24T20:25:50.026Z,6.17
2018-07-24T20:28:18.301Z,6.10
2018-07-24T20:30:46.646Z,5.87
2018-07-24T20:33:14.927Z,6.03
2018-07-24T20:35:43.251Z,6.03
2018-07-24T20:38:11.459Z,5.90
2018-07-24T20:40:39.705Z,7.40
2018-07-24T20:43:07.765Z,7.00
2018-07-24T20:45:36.085Z,6.03
2018-07-24T20:48:04.366Z,6.00
2018-07-24T20:50:32.668Z,5.70
2018-07-24T20:53:00.945Z,5.87
2018-07-24T20:55:29.587Z,6.33
2018-07-24T20:57:58.323Z,6.03
2018-07-24T21:00:26.812Z,6.30
2018-07-24T21:02:55.085Z,6.23
2018-07-24T21:05:23.628Z,6.50
2018-07-24T21:07:51.874Z,6.07
2018-07-24T21:10:20.218Z,6.27
2018-07-24T21:12:49.649Z,5.87
2018-07-24T21:15:18.734Z,6.60
2018-07-24T21:17:47.205Z,6.63
2018-07-24T21:20:15.505Z,5.87
2018-07-24T21:22:43.952Z,6.57
2018-07-24T21:25:12.280Z,6.23
2018-07-24T21:27:40.513Z,6.60
2018-07-24T21:30:09.624Z,6.07
2018-07-24T21:32:37.934Z,6.23
2018-07-24T21:35:06.337Z,6.20
2018-07-24T21:37:34.626Z,6.40
2018-07-24T21:40:02.962Z,6.10
2018-07-24T21:42:31.281Z,5.53
2018-07-24T21:44:59.558Z,6.33
2018-07-24T21:47:28.257Z,6.00
2018-07-24T21:49:56.554Z,6.20
2018-07-24T21:52:24.867Z,6.33
2018-07-24T21:54:53.558Z,6.03
2018-07-24T21:57:21.794Z,6.90
2018-07-24T21:59:50.132Z,6.07
2018-07-24T22:02:18.446Z,6.70
2018-07-24T22:04:46.746Z,6.60
2018-07-24T22:07:15.062Z,6.47
2018-07-24T22:09:43.354Z,6.17
2018-07-24T22:12:11.656Z,6.03
2018-07-24T22:14:39.934Z,6.30
2018-07-24T22:17:08.258Z,6.40
2018-07-24T22:19:36.562Z,5.97
2018-07-24T22:22:04.847Z,6.13
2018-07-24T22:24:33.129Z,6.80
2018-07-24T22:27:01.446Z,6.53
2018-07-24T22:29:29.740Z,6.43
2018-07-24T22:31:58.073Z,6.60
2018-07-24T22:34:26.332Z,6.40
2018-07-24T22:36:54.660Z,6.10
2018-07-24T22:39:22.947Z,6.80
2018-07-24T22:41:51.261Z,6.70
2018-07-24T22:44:19.577Z,6.20
2018-07-24T22:46:47.855Z,5.93
2018-07-24T22:49:16.158Z,6.53
2018-07-24T22:51:44.530Z,6.80
2018-07-24T22:54:12.830Z,6.20
2018-07-24T22:56:40.883Z,6.33
2018-07-24T22:59:09.110Z,6.40
2018-07-24T23:01:37.417Z,6.70
2018-07-24T23:04:05.941Z,6.53
2018-07-24T23:06:34.211Z,6.90
2018-07-24T23:09:02.534Z,6.93
2018-07-24T23:11:30.839Z,6.67
2018-07-24T23:13:59.113Z,6.73
2018-07-24T23:16:27.399Z,6.00
2018-07-24T23:18:55.733Z,6.80
2018-07-24T23:21:24.093Z,6.63
2018-07-24T23:23:52.402Z,6.73
2018-07-24T23:26:20.718Z,6.83
2018-07-24T23:28:49.009Z,6.47
2018-07-24T23:31:17.280Z,6.40
2018-07-24T23:33:45.565Z,6.50
2018-07-24T23:36:13.877Z,6.20
2018-07-24T23:38:42.182Z,6.50
2018-07-24T23:41:10.465Z,6.47
2018-07-24T23:43:38.742Z,6.77
2018-07-24T23:46:07.054Z,6.60
2018-07-24T23:48:35.366Z,6.33
2018-07-24T23:51:03.666Z,6.60
2018-07-24T23:53:31.954Z,6.60
2018-07-24T23:56:00.281Z,6.40
2018-07-24T23:58:28.682Z,6.60
